Latest Weather Observations for Braidwood

IDN60901

Issued at 2:21 pm EDT Sunday 16 December 2018 (issued every 10 minutes, with the page automatically refreshed every 10 minutes)

About weather observations | Map of Canberra area stations | Latest observations for Canberra area | Other Formats
Station Details ID: 069132 Name: BRAIDWOOD RACECOURSE AWS Lat: -35.43 Lon: 149.78 Height: 665.2 m
Data from the previous 72 hours. | See also: Recent months at Braidwood
Date/Time
EDT
Temp
°C
App
Temp
°C
Dew
Point
°C
Rel
Hum
%
Delta-T
°C
Wind Press
QNH
hPa
Press
MSL
hPa
Rain since
9am
mm
Dir  Spd
km/h
Gust
km/h
Spd
kts
Gust
kts
16/02:00pm 27.0 - - - - NNW 17 37 9 20 - - 0.2
16/01:30pm 26.3 - - - - NW 20 37 11 20 - - 0.2
16/01:00pm 25.7 - - - - NW 20 39 11 21 - - 0.2
16/12:30pm 27.0 - - - - NW 20 33 11 18 - - 0.2
16/12:00pm 26.5 22.9 9.8 35 9.6 NNW 19 30 10 16 - 1006.1 0.2
16/11:30am 25.5 - - - - NW 19 32 10 17 - - 0.2
16/11:00am 23.9 - - - - NNW 9 15 5 8 - - 0.2
16/10:30am 23.8 - - - - NNW 9 19 5 10 - - 0.2
16/10:00am 23.8 - - - - N 11 26 6 14 - - 0.2
16/09:30am 22.4 - - - - NNE 6 13 3 7 - - 0.0
16/09:00am 21.0 22.6 16.8 77 2.6 NNW 4 9 2 5 - 1007.0 2.4
16/08:30am 17.8 - - - - N 2 7 1 4 - - 2.4
16/08:12am 16.8 - - - - CALM 0 4 0 2 - - 2.4
16/08:00am 16.5 - - - - CALM 0 2 0 1 - - 2.4
16/07:30am 15.4 - - - - CALM 0 4 0 2 - - 2.4
16/07:00am 15.2 - - - - CALM 0 0 0 0 - - 2.4
16/06:30am 14.9 - - - - CALM 0 0 0 0 - - 2.4
16/06:00am 14.5 15.7 13.9 96 0.3 CALM 0 0 0 0 - 1006.3 2.4
16/05:30am 14.0 - - - - CALM 0 0 0 0 - - 2.4
16/05:00am 13.9 - - - - CALM 0 0 0 0 - - 2.4
16/04:42am 14.0 - - - - CALM 0 0 0 0 - - 2.4
16/04:30am 14.3 - - - - CALM 0 0 0 0 - - 2.4
16/04:00am 14.4 - - - - CALM 0 0 0 0 - - 2.4
16/03:30am 14.2 - - - - CALM 0 0 0 0 - - 2.4
16/03:00am 14.5 15.6 13.5 94 0.6 CALM 0 0 0 0 - 1005.4 2.4
16/02:30am 14.8 - - - - CALM 0 0 0 0 - - 2.4
16/02:00am 15.4 - - - - CALM 0 0 0 0 - - 2.4
16/01:30am 15.8 - - - - CALM 0 0 0 0 - - 2.4
16/01:00am 16.2 - - - - WNW 4 6 2 3 - - 2.4
16/12:30am 16.7 - - - - WNW 2 7 1 4 - - 2.4
16/12:00am 16.8 17.8 15.3 91 0.9 N 4 9 2 5 - 1006.2 2.4
 
Date/Time
EDT
Temp
°C
App
Temp
°C
Dew
Point
°C
Rel
Hum
%
Delta-T
°C
Wind Press
QNH
hPa
Press
MSL
hPa
Rain since
9am
mm
Dir  Spd
km/h
Gust
km/h
Spd
kts
Gust
kts
15/11:30pm 16.4 - - - - NE 2 4 1 2 - - 2.4
15/11:00pm 16.4 - - - - NNE 2 6 1 3 - - 2.4
15/10:30pm 16.3 - - - - CALM 0 0 0 0 - - 2.4
15/10:00pm 16.5 - - - - CALM 0 0 0 0 - - 2.4
15/09:30pm 16.8 - - - - CALM 0 0 0 0 - - 2.4
15/09:00pm 17.2 18.6 14.5 84 1.6 CALM 0 0 0 0 - 1006.1 2.4
15/08:30pm 18.0 - - - - CALM 0 0 0 0 - - 2.4
15/08:00pm 18.8 - - - - NE 2 4 1 2 - - 2.4
15/07:58pm 18.9 - - - - ENE 2 6 1 3 - - 2.4
15/07:30pm 20.4 - - - - ENE 13 19 7 10 - - 2.4
15/07:00pm 20.8 - - - - ESE 9 13 5 7 - - 2.4
15/06:30pm 20.6 - - - - SSW 2 9 1 5 - - 2.4
15/06:00pm 20.5 20.4 15.9 75 2.8 SE 11 15 6 8 - 1003.2 2.4
15/05:30pm 21.3 - - - - ESE 13 17 7 9 - - 2.4
15/05:00pm 21.8 - - - - E 6 11 3 6 - - 2.4
15/04:30pm 20.4 - - - - ENE 13 19 7 10 - - 2.4
15/04:00pm 20.6 - - - - E 17 26 9 14 - - 2.4
15/03:30pm 21.4 - - - - N 4 9 2 5 - - 1.6
15/03:00pm 21.7 20.4 14.8 65 4.2 NE 15 37 8 20 - 1003.9 1.4
15/02:30pm 21.7 - - - - N 2 7 1 4 - - 1.0
15/02:00pm 23.2 - - - - NW 9 15 5 8 - - 0.2
15/01:30pm 25.4 - - - - NNE 9 19 5 10 - - 0.2
15/01:00pm 24.5 - - - - NNE 6 13 3 7 - - 0.2
15/12:30pm 23.8 - - - - NNE 6 13 3 7 - - 0.2
15/12:00pm 22.9 24.0 15.5 63 4.6 NNE 4 9 2 5 - 1006.5 0.2
15/11:30am 23.9 - - - - NNE 7 17 4 9 - - 0.2
15/11:00am 23.6 - - - - N 7 17 4 9 - - 0.2
15/10:30am 22.7 - - - - N 7 15 4 8 - - 0.2
15/10:00am 22.0 - - - - N 7 15 4 8 - - 0.0
15/09:30am 20.8 - - - - NNE 6 11 3 6 - - 0.0
15/09:04am 20.3 - - - - NNE 7 20 4 11 - - 0.0
15/09:00am 20.0 21.1 17.2 84 1.8 NNE 7 15 4 8 - 1006.8 25.8
15/08:30am 19.2 - - - - NNE 7 17 4 9 - - 25.8
15/08:00am 18.3 - - - - NE 7 13 4 7 - - 25.8
15/07:30am 17.8 - - - - NE 6 9 3 5 - - 25.8
15/07:00am 17.1 - - - - ESE 4 6 2 3 - - 25.8
15/06:39am 16.8 - - - - SE 4 6 2 3 - - 25.8
15/06:36am 16.8 - - - - SE 4 6 2 3 - - 25.8
15/06:30am 16.7 - - - - SE 6 6 3 3 - - 25.8
15/06:26am 16.7 - - - - SE 6 9 3 5 - - 25.8
15/06:00am 16.7 17.6 16.1 96 0.4 SE 6 7 3 4 - 1005.0 25.8
15/05:54am 16.7 - - - - SE 6 9 3 5 - - 25.8
15/05:31am 16.7 - - - - CALM 0 2 0 1 - - 25.8
15/05:30am 16.7 - - - - SSE 2 4 1 2 - - 25.8
15/05:00am 16.9 - - - - SSE 4 6 2 3 - - 25.8
15/04:56am 16.9 - - - - SE 4 6 2 3 - - 25.8
15/04:30am 16.9 - - - - ESE 9 11 5 6 - - 25.8
15/04:00am 16.9 - - - - ESE 11 15 6 8 - - 25.8
15/03:30am 17.1 - - - - SE 6 9 3 5 - - 25.8
15/03:00am 17.3 18.4 16.7 96 0.4 SE 6 13 3 7 - 1004.2 25.8
15/02:30am 16.8 - - - - SE 6 9 3 5 - - 20.8
15/02:00am 16.8 - - - - SSW 6 9 3 5 - - 20.8
15/01:30am 16.9 - - - - S 6 7 3 4 - - 20.8
15/01:00am 17.3 - - - - SE 7 9 4 5 - - 20.8
15/12:30am 16.6 - - - - S 6 9 3 5 - - 20.6
15/12:00am 16.1 17.1 15.3 95 0.5 S 4 7 2 4 - 1005.7 20.6
 
Date/Time
EDT
Temp
°C
App
Temp
°C
Dew
Point
°C
Rel
Hum
%
Delta-T
°C
Wind Press
QNH
hPa
Press
MSL
hPa
Rain since
9am
mm
Dir  Spd
km/h
Gust
km/h
Spd
kts
Gust
kts
14/11:30pm 15.7 - - - - SSE 6 7 3 4 - - 20.6
14/11:00pm 15.6 - - - - CALM 0 0 0 0 - - 20.6
14/10:30pm 15.7 - - - - W 6 7 3 4 - - 19.0
14/10:07pm 15.7 - - - - WNW 4 9 2 5 - - 19.0
14/10:00pm 15.7 - - - - CALM 0 0 0 0 - - 19.0
14/09:30pm 15.6 - - - - SSE 4 6 2 3 - - 19.0
14/09:00pm 15.4 16.0 14.3 93 0.6 WNW 4 6 2 3 - 1005.5 19.0
14/08:30pm 16.1 - - - - NE 13 24 7 13 - - 18.0
14/08:00pm 16.7 - - - - NE 17 35 9 19 - - 13.6
14/07:30pm 17.4 - - - - E 26 35 14 19 - - 12.4
14/07:18pm 17.8 - - - - E 24 39 13 21 - - 12.0
14/07:00pm 18.1 - - - - ENE 13 19 7 10 - - 9.4
14/06:57pm 18.1 - - - - E 15 22 8 12 - - 8.0
14/06:30pm 19.3 - - - - E 15 22 8 12 - - 7.2
14/06:00pm 19.9 18.4 16.2 79 2.3 E 19 26 10 14 - 1004.2 7.2
14/05:30pm 20.5 - - - - E 17 24 9 13 - - 7.2
14/05:00pm 20.3 - - - - E 22 30 12 16 - - 7.0
14/04:30pm 20.5 - - - - E 22 33 12 18 - - 7.0
14/04:00pm 20.5 - - - - ESE 13 19 7 10 - - 7.0
14/03:30pm 20.1 - - - - SE 15 22 8 12 - - 7.0
14/03:00pm 20.6 20.7 16.4 77 2.6 SE 11 20 6 11 - 1002.6 7.0
14/02:30pm 19.6 - - - - SSE 9 15 5 8 - - 7.0
14/02:00pm 19.4 - - - - ESE 7 11 4 6 - - 7.0
14/01:30pm 18.0 - - - - CALM 0 0 0 0 - - 7.0
14/01:00pm 16.8 - - - - NNW 6 17 3 9 - - 7.0
14/12:54pm 16.4 - - - - N 11 35 6 19 - - 6.8
14/12:30pm 19.0 - - - - E 9 13 5 7 - - 0.2
14/12:00pm 18.7 19.3 16.7 88 1.2 SE 9 15 5 8 - 1003.2 0.0
14/11:30am 18.5 - - - - SE 9 13 5 7 - - 0.0
14/11:00am 18.1 - - - - E 6 9 3 5 - - 0.0
14/10:30am 17.6 - - - - SE 13 17 7 9 - - 0.0
14/10:00am 17.6 - - - - ESE 11 15 6 8 - - 0.0
14/09:30am 17.2 - - - - E 11 19 6 10 - - 0.0
14/09:00am 16.6 17.2 15.3 92 0.8 SSE 6 7 3 4 - 1002.7 20.0
14/08:30am 16.5 - - - - ESE 7 11 4 6 - - 20.0
14/08:07am 15.8 - - - - ESE 4 11 2 6 - - 20.0
14/08:00am 15.6 - - - - S 6 11 3 6 - - 20.0
14/07:30am 15.4 - - - - SSW 6 7 3 4 - - 18.6
14/07:00am 15.4 - - - - SE 6 9 3 5 - - 17.4
14/06:30am 15.4 - - - - SSE 9 13 5 7 - - 17.4
14/06:14am 15.5 - - - - S 6 7 3 4 - - 17.4
14/06:00am 15.3 15.4 14.5 95 0.5 S 7 11 4 6 - 1000.8 17.4
14/05:30am 15.4 - - - - SE 11 15 6 8 - - 17.4
14/05:00am 15.6 - - - - E 13 20 7 11 - - 17.4
14/04:30am 15.4 - - - - ESE 9 13 5 7 - - 17.2
14/04:00am 15.5 - - - - SE 7 9 4 5 - - 17.2
14/03:51am 15.4 - - - - SE 6 9 3 5 - - 17.0
14/03:30am 15.1 - - - - SE 7 11 4 6 - - 17.0
14/03:00am 15.1 15.7 14.3 95 0.5 SSW 4 9 2 5 - 1000.0 17.0
14/02:30am 15.4 - - - - W 7 11 4 6 - - 16.0
14/02:00am 15.4 - - - - SSW 6 7 3 4 - - 15.4
14/01:30am 15.3 - - - - SSE 2 6 1 3 - - 15.4
14/01:06am 15.3 - - - - SE 6 9 3 5 - - 15.4
14/01:00am 15.3 - - - - SE 7 9 4 5 - - 15.4
14/12:30am 15.1 - - - - WSW 7 13 4 7 - - 15.4
14/12:08am 15.4 - - - - NW 2 9 1 5 - - 15.0
14/12:00am 15.5 17.0 14.7 95 0.5 CALM 0 0 0 0 - 1001.4 15.0
 
Date/Time
EDT
Temp
°C
App
Temp
°C
Dew
Point
°C
Rel
Hum
%
Delta-T
°C
Wind Press
QNH
hPa
Press
MSL
hPa
Rain since
9am
mm
Dir  Spd
km/h
Gust
km/h
Spd
kts
Gust
kts
13/11:30pm 15.1 - - - - CALM 0 0 0 0 - - 14.8
13/11:00pm 15.0 - - - - CALM 0 0 0 0 - - 14.8
13/10:30pm 15.2 - - - - CALM 0 0 0 0 - - 14.8
13/10:00pm 15.7 - - - - CALM 0 0 0 0 - - 14.8
13/09:30pm 16.1 - - - - S 2 4 1 2 - - 14.8
13/09:00pm 16.2 16.9 14.6 90 1.0 SSE 4 7 2 4 - 1000.2 14.8
13/08:30pm 16.4 - - - - S 4 6 2 3 - - 14.8
13/08:00pm 16.5 - - - - SE 7 11 4 6 - - 14.8
13/07:30pm 16.6 17.4 14.8 89 1.1 N 4 11 2 6 1003.0 1000.4 12.8
13/07:26pm 16.7 - - - - N 4 9 2 5 - - 12.6
13/07:00pm 18.9 - - - - NNW 6 13 3 7 - - 8.4
13/06:30pm 19.3 - - - - NNW 4 9 2 5 - - 8.2
13/06:29pm 19.3 - - - - N 4 9 2 5 - - 8.2
13/06:00pm 19.6 21.2 17.0 85 1.6 NNE 4 9 2 5 - 998.3 8.2
13/05:30pm 19.8 - - - - NE 9 15 5 8 - - 8.2
13/05:00pm 20.1 - - - - NE 11 20 6 11 - - 8.2
13/04:56pm 20.0 - - - - NE 11 20 6 11 - - 8.2
13/04:37pm 20.7 - - - - NNE 7 17 4 9 - - 8.2
13/04:30pm 20.8 - - - - NNE 9 19 5 10 - - 8.2
13/04:00pm 21.5 - - - - NNE 9 17 5 9 - - 8.2
13/03:30pm 23.1 - - - - N 6 11 3 6 - - 8.2
13/03:00pm 22.5 23.5 16.8 70 3.6 NNW 7 13 4 7 - 998.7 8.2
13/02:30pm 22.6 - - - - N 4 9 2 5 - - 8.2

Latest Capital City Observations: Canberra | Sydney | Melbourne | Brisbane | Adelaide | Perth | Hobart | Darwin

Other Formats:

Comma delimited format used in spreadsheet applications
http://www.bom.gov.au/fwo/IDN60903/IDN60903.94927.axf

JavaScript Object Notation format (JSON) in row-major order
http://www.bom.gov.au/fwo/IDN60903/IDN60903.94927.json